Reservoir, Mississippi
Current Conditions -  °F | °C
As of 7:54 PM on Friday 31 Oct 2014 (Local Time) from KJAN Reporting Station
Few Clouds Few Clouds  
Wind Chill: 13°   Ceiling: Unl
Heat Index: 13°   Visibility: 10mi
Dew Point:   Wind: 18mph
Humidity: 59%   Direction: 360°N
Pressure: 30.19"   Gusts: 25mph
Location:  32.2729°N, 89.9857°W
Report Text: KJAN 010054Z 36016G22KT 10SM FEW050 13/05 A3019 RMK AO2 PK WND 35028/0024 SLP223 T01280050
Loading
Personal Weather Stations






























Interactive Weather Map
Tropical Storm Tracking
New forecast layout! Learn more

10-Day Weather Forecast

Advertisements
Track Severe Weather on mobile